sensor_id;sensor_type;location;lat;lon;timestamp;P1;durP1;ratioP1;P2;durP2;ratioP2
3755;SDS011;1893;52.526;13.360;2022-08-30T00:01:55;3.23;;;2.93;;
3755;SDS011;1893;52.526;13.360;2022-08-30T00:04:21;3.40;;;3.07;;
3755;SDS011;1893;52.526;13.360;2022-08-30T00:06:46;3.70;;;3.33;;
3755;SDS011;1893;52.526;13.360;2022-08-30T00:09:12;3.60;;;3.00;;
3755;SDS011;1893;52.526;13.360;2022-08-30T00:11:38;4.27;;;3.97;;
3755;SDS011;1893;52.526;13.360;2022-08-30T00:14:04;4.27;;;3.30;;
3755;SDS011;1893;52.526;13.360;2022-08-30T00:16:30;3.63;;;3.30;;
3755;SDS011;1893;52.526;13.360;2022-08-30T00:18:56;4.30;;;3.90;;
3755;SDS011;1893;52.526;13.360;2022-08-30T00:21:22;3.80;;;3.50;;
3755;SDS011;1893;52.526;13.360;2022-08-30T00:23:48;3.97;;;3.57;;
3755;SDS011;1893;52.526;13.360;2022-08-30T00:26:14;3.93;;;3.53;;
3755;SDS011;1893;52.526;13.360;2022-08-30T00:28:40;4.20;;;3.90;;
3755;SDS011;1893;52.526;13.360;2022-08-30T00:31:06;4.00;;;3.10;;
3755;SDS011;1893;52.526;13.360;2022-08-30T00:33:32;3.53;;;3.30;;
3755;SDS011;1893;52.526;13.360;2022-08-30T00:35:58;4.67;;;3.57;;
3755;SDS011;1893;52.526;13.360;2022-08-30T00:38:23;5.13;;;3.90;;
3755;SDS011;1893;52.526;13.360;2022-08-30T00:40:50;4.50;;;4.10;;
3755;SDS011;1893;52.526;13.360;2022-08-30T00:43:20;3.80;;;3.50;;
3755;SDS011;1893;52.526;13.360;2022-08-30T00:45:49;4.10;;;3.53;;
3755;SDS011;1893;52.526;13.360;2022-08-30T00:48:15;3.70;;;3.40;;
3755;SDS011;1893;52.526;13.360;2022-08-30T00:50:43;4.70;;;3.60;;
3755;SDS011;1893;52.526;13.360;2022-08-30T00:53:15;4.83;;;3.70;;
3755;SDS011;1893;52.526;13.360;2022-08-30T00:55:45;6.53;;;4.00;;
3755;SDS011;1893;52.526;13.360;2022-08-30T00:58:13;3.77;;;3.40;;
3755;SDS011;1893;52.526;13.360;2022-08-30T01:00:45;4.63;;;4.30;;
3755;SDS011;1893;52.526;13.360;2022-08-30T01:03:11;4.37;;;3.97;;
3755;SDS011;1893;52.526;13.360;2022-08-30T01:05:37;4.20;;;3.80;;
3755;SDS011;1893;52.526;13.360;2022-08-30T01:08:03;5.30;;;4.00;;
3755;SDS011;1893;52.526;13.360;2022-08-30T01:10:30;4.57;;;4.17;;
3755;SDS011;1893;52.526;13.360;2022-08-30T01:13:00;4.40;;;4.10;;
3755;SDS011;1893;52.526;13.360;2022-08-30T01:15:25;4.00;;;3.70;;
3755;SDS011;1893;52.526;13.360;2022-08-30T01:17:51;6.40;;;4.67;;
3755;SDS011;1893;52.526;13.360;2022-08-30T01:20:19;5.30;;;4.50;;
3755;SDS011;1893;52.526;13.360;2022-08-30T01:25:20;5.10;;;4.70;;
3755;SDS011;1893;52.526;13.360;2022-08-30T01:27:52;5.90;;;5.30;;
3755;SDS011;1893;52.526;13.360;2022-08-30T01:30:22;5.77;;;4.80;;
3755;SDS011;1893;52.526;13.360;2022-08-30T01:32:48;5.83;;;5.33;;
3755;SDS011;1893;52.526;13.360;2022-08-30T01:35:18;5.80;;;5.30;;
3755;SDS011;1893;52.526;13.360;2022-08-30T01:37:44;5.27;;;4.80;;
3755;SDS011;1893;52.526;13.360;2022-08-30T01:40:12;5.90;;;5.40;;
3755;SDS011;1893;52.526;13.360;2022-08-30T01:42:38;7.13;;;6.40;;
3755;SDS011;1893;52.526;13.360;2022-08-30T01:45:04;4.93;;;4.53;;
3755;SDS011;1893;52.526;13.360;2022-08-30T01:47:31;6.00;;;5.40;;
3755;SDS011;1893;52.526;13.360;2022-08-30T01:49:57;6.50;;;5.90;;
3755;SDS011;1893;52.526;13.360;2022-08-30T01:52:23;6.50;;;5.90;;
3755;SDS011;1893;52.526;13.360;2022-08-30T01:54:49;6.17;;;5.57;;
3755;SDS011;1893;52.526;13.360;2022-08-30T01:57:16;7.30;;;6.03;;
3755;SDS011;1893;52.526;13.360;2022-08-30T01:59:45;7.13;;;6.43;;
3755;SDS011;1893;52.526;13.360;2022-08-30T02:02:14;8.33;;;6.50;;
3755;SDS011;1893;52.526;13.360;2022-08-30T02:04:44;8.30;;;6.47;;
3755;SDS011;1893;52.526;13.360;2022-08-30T02:07:11;7.57;;;6.87;;
3755;SDS011;1893;52.526;13.360;2022-08-30T02:09:36;7.80;;;6.63;;
3755;SDS011;1893;52.526;13.360;2022-08-30T02:12:03;7.47;;;6.10;;
3755;SDS011;1893;52.526;13.360;2022-08-30T02:14:31;9.03;;;7.50;;
3755;SDS011;1893;52.526;13.360;2022-08-30T02:16:57;7.23;;;6.50;;
3755;SDS011;1893;52.526;13.360;2022-08-30T02:19:22;7.00;;;6.40;;
3755;SDS011;1893;52.526;13.360;2022-08-30T02:21:48;9.17;;;6.43;;
3755;SDS011;1893;52.526;13.360;2022-08-30T02:24:14;6.80;;;5.93;;
3755;SDS011;1893;52.526;13.360;2022-08-30T02:26:39;6.67;;;6.07;;
3755;SDS011;1893;52.526;13.360;2022-08-30T02:29:06;6.07;;;5.37;;
3755;SDS011;1893;52.526;13.360;2022-08-30T02:31:32;8.77;;;7.00;;
3755;SDS011;1893;52.526;13.360;2022-08-30T02:33:57;11.13;;;7.37;;
3755;SDS011;1893;52.526;13.360;2022-08-30T02:36:23;7.70;;;7.00;;
3755;SDS011;1893;52.526;13.360;2022-08-30T02:38:49;8.10;;;7.30;;
3755;SDS011;1893;52.526;13.360;2022-08-30T02:41:15;9.20;;;7.70;;
3755;SDS011;1893;52.526;13.360;2022-08-30T02:43:42;11.60;;;8.13;;
3755;SDS011;1893;52.526;13.360;2022-08-30T02:46:07;11.23;;;7.17;;
3755;SDS011;1893;52.526;13.360;2022-08-30T02:48:33;8.97;;;7.67;;
3755;SDS011;1893;52.526;13.360;2022-08-30T02:51:03;10.10;;;8.30;;
3755;SDS011;1893;52.526;13.360;2022-08-30T02:53:31;10.63;;;8.37;;
3755;SDS011;1893;52.526;13.360;2022-08-30T02:55:56;9.13;;;8.17;;
3755;SDS011;1893;52.526;13.360;2022-08-30T02:58:22;9.63;;;8.40;;
3755;SDS011;1893;52.526;13.360;2022-08-30T03:00:48;7.93;;;6.93;;
3755;SDS011;1893;52.526;13.360;2022-08-30T03:03:14;8.37;;;7.47;;
3755;SDS011;1893;52.526;13.360;2022-08-30T03:05:39;8.47;;;7.60;;
3755;SDS011;1893;52.526;13.360;2022-08-30T03:08:05;9.33;;;8.30;;
3755;SDS011;1893;52.526;13.360;2022-08-30T03:10:31;9.50;;;8.10;;
3755;SDS011;1893;52.526;13.360;2022-08-30T03:12:57;9.20;;;7.60;;
3755;SDS011;1893;52.526;13.360;2022-08-30T03:15:22;10.53;;;8.00;;
3755;SDS011;1893;52.526;13.360;2022-08-30T03:17:49;9.20;;;8.30;;
3755;SDS011;1893;52.526;13.360;2022-08-30T03:20:16;9.27;;;8.10;;
3755;SDS011;1893;52.526;13.360;2022-08-30T03:22:42;9.43;;;8.00;;
3755;SDS011;1893;52.526;13.360;2022-08-30T03:25:08;9.87;;;8.17;;
3755;SDS011;1893;52.526;13.360;2022-08-30T03:27:34;7.97;;;7.07;;
3755;SDS011;1893;52.526;13.360;2022-08-30T03:29:59;8.63;;;7.30;;
3755;SDS011;1893;52.526;13.360;2022-08-30T03:32:25;8.50;;;7.30;;
3755;SDS011;1893;52.526;13.360;2022-08-30T03:34:51;11.33;;;8.03;;
3755;SDS011;1893;52.526;13.360;2022-08-30T03:37:16;10.67;;;8.30;;
3755;SDS011;1893;52.526;13.360;2022-08-30T03:39:42;10.07;;;8.03;;
3755;SDS011;1893;52.526;13.360;2022-08-30T03:42:09;11.23;;;8.63;;
3755;SDS011;1893;52.526;13.360;2022-08-30T03:44:35;9.17;;;8.17;;
3755;SDS011;1893;52.526;13.360;2022-08-30T03:47:01;8.70;;;7.80;;
3755;SDS011;1893;52.526;13.360;2022-08-30T03:49:27;10.30;;;8.20;;
3755;SDS011;1893;52.526;13.360;2022-08-30T03:51:53;10.10;;;9.00;;
3755;SDS011;1893;52.526;13.360;2022-08-30T03:54:18;13.13;;;9.43;;
3755;SDS011;1893;52.526;13.360;2022-08-30T03:56:44;10.43;;;8.57;;
3755;SDS011;1893;52.526;13.360;2022-08-30T03:59:09;9.40;;;8.40;;
3755;SDS011;1893;52.526;13.360;2022-08-30T04:01:35;12.47;;;9.23;;
3755;SDS011;1893;52.526;13.360;2022-08-30T04:04:01;9.47;;;8.33;;
3755;SDS011;1893;52.526;13.360;2022-08-30T04:06:26;9.70;;;7.63;;
3755;SDS011;1893;52.526;13.360;2022-08-30T04:08:52;11.83;;;8.70;;
3755;SDS011;1893;52.526;13.360;2022-08-30T04:11:18;10.10;;;8.13;;
3755;SDS011;1893;52.526;13.360;2022-08-30T04:13:44;10.00;;;8.37;;
3755;SDS011;1893;52.526;13.360;2022-08-30T04:16:10;9.53;;;8.50;;
3755;SDS011;1893;52.526;13.360;2022-08-30T04:18:36;9.73;;;7.20;;
3755;SDS011;1893;52.526;13.360;2022-08-30T04:21:02;8.73;;;7.83;;
3755;SDS011;1893;52.526;13.360;2022-08-30T04:23:28;8.53;;;7.73;;
3755;SDS011;1893;52.526;13.360;2022-08-30T04:25:54;10.20;;;8.80;;
3755;SDS011;1893;52.526;13.360;2022-08-30T04:28:20;10.03;;;9.00;;
3755;SDS011;1893;52.526;13.360;2022-08-30T04:30:46;10.20;;;9.03;;
3755;SDS011;1893;52.526;13.360;2022-08-30T04:33:13;11.20;;;9.17;;
3755;SDS011;1893;52.526;13.360;2022-08-30T04:35:40;9.07;;;8.17;;
3755;SDS011;1893;52.526;13.360;2022-08-30T04:38:07;10.00;;;9.00;;
3755;SDS011;1893;52.526;13.360;2022-08-30T04:40:33;9.70;;;8.80;;
3755;SDS011;1893;52.526;13.360;2022-08-30T04:42:59;10.67;;;8.80;;
3755;SDS011;1893;52.526;13.360;2022-08-30T04:45:25;11.93;;;8.37;;
3755;SDS011;1893;52.526;13.360;2022-08-30T04:47:50;20.20;;;14.90;;
3755;SDS011;1893;52.526;13.360;2022-08-30T04:50:17;29.33;;;19.77;;
3755;SDS011;1893;52.526;13.360;2022-08-30T04:52:44;13.20;;;8.70;;
3755;SDS011;1893;52.526;13.360;2022-08-30T04:55:10;10.70;;;9.67;;
3755;SDS011;1893;52.526;13.360;2022-08-30T04:57:36;10.43;;;8.73;;
3755;SDS011;1893;52.526;13.360;2022-08-30T05:00:07;8.57;;;7.73;;
3755;SDS011;1893;52.526;13.360;2022-08-30T05:02:35;9.27;;;8.37;;
3755;SDS011;1893;52.526;13.360;2022-08-30T05:05:02;11.70;;;8.97;;
3755;SDS011;1893;52.526;13.360;2022-08-30T05:07:46;9.10;;;7.80;;
3755;SDS011;1893;52.526;13.360;2022-08-30T05:10:12;8.50;;;7.80;;
3755;SDS011;1893;52.526;13.360;2022-08-30T05:12:38;12.83;;;8.90;;
3755;SDS011;1893;52.526;13.360;2022-08-30T05:15:04;9.50;;;8.57;;
3755;SDS011;1893;52.526;13.360;2022-08-30T05:17:30;9.53;;;8.40;;
3755;SDS011;1893;52.526;13.360;2022-08-30T05:19:55;10.40;;;8.30;;
3755;SDS011;1893;52.526;13.360;2022-08-30T05:22:21;9.50;;;7.83;;
3755;SDS011;1893;52.526;13.360;2022-08-30T05:24:47;9.33;;;7.97;;
3755;SDS011;1893;52.526;13.360;2022-08-30T05:27:13;12.10;;;9.10;;
3755;SDS011;1893;52.526;13.360;2022-08-30T05:29:39;11.50;;;9.30;;
3755;SDS011;1893;52.526;13.360;2022-08-30T05:32:05;9.23;;;8.23;;
3755;SDS011;1893;52.526;13.360;2022-08-30T05:34:32;8.60;;;7.50;;
3755;SDS011;1893;52.526;13.360;2022-08-30T05:36:58;9.50;;;8.60;;
3755;SDS011;1893;52.526;13.360;2022-08-30T05:39:24;11.00;;;8.87;;
3755;SDS011;1893;52.526;13.360;2022-08-30T05:41:50;10.37;;;8.80;;
3755;SDS011;1893;52.526;13.360;2022-08-30T05:44:23;9.70;;;8.53;;
3755;SDS011;1893;52.526;13.360;2022-08-30T05:46:49;8.40;;;7.40;;
3755;SDS011;1893;52.526;13.360;2022-08-30T05:49:15;11.87;;;9.70;;
3755;SDS011;1893;52.526;13.360;2022-08-30T05:51:40;9.57;;;8.57;;
3755;SDS011;1893;52.526;13.360;2022-08-30T05:54:06;8.93;;;7.60;;
3755;SDS011;1893;52.526;13.360;2022-08-30T05:56:33;7.77;;;7.07;;
3755;SDS011;1893;52.526;13.360;2022-08-30T05:59:01;9.33;;;8.20;;
3755;SDS011;1893;52.526;13.360;2022-08-30T06:03:59;9.73;;;8.73;;
3755;SDS011;1893;52.526;13.360;2022-08-30T06:06:26;8.30;;;7.50;;
3755;SDS011;1893;52.526;13.360;2022-08-30T06:08:53;9.80;;;8.83;;
3755;SDS011;1893;52.526;13.360;2022-08-30T06:11:19;10.47;;;8.50;;
3755;SDS011;1893;52.526;13.360;2022-08-30T06:13:46;10.20;;;7.80;;
3755;SDS011;1893;52.526;13.360;2022-08-30T06:16:13;7.93;;;7.17;;
3755;SDS011;1893;52.526;13.360;2022-08-30T06:18:41;8.80;;;7.90;;
3755;SDS011;1893;52.526;13.360;2022-08-30T06:21:07;8.50;;;7.70;;
3755;SDS011;1893;52.526;13.360;2022-08-30T06:23:32;8.47;;;7.50;;
3755;SDS011;1893;52.526;13.360;2022-08-30T06:26:04;11.80;;;8.73;;
3755;SDS011;1893;52.526;13.360;2022-08-30T06:28:31;8.97;;;7.73;;
3755;SDS011;1893;52.526;13.360;2022-08-30T06:30:56;8.03;;;7.20;;
3755;SDS011;1893;52.526;13.360;2022-08-30T06:33:22;9.30;;;6.80;;
3755;SDS011;1893;52.526;13.360;2022-08-30T06:35:48;11.37;;;7.63;;
3755;SDS011;1893;52.526;13.360;2022-08-30T06:38:13;10.77;;;7.20;;
3755;SDS011;1893;52.526;13.360;2022-08-30T06:40:39;10.20;;;8.83;;
3755;SDS011;1893;52.526;13.360;2022-08-30T06:43:05;10.63;;;7.60;;
3755;SDS011;1893;52.526;13.360;2022-08-30T06:45:31;7.93;;;7.10;;
3755;SDS011;1893;52.526;13.360;2022-08-30T06:47:58;8.40;;;7.50;;
3755;SDS011;1893;52.526;13.360;2022-08-30T06:50:23;11.70;;;7.63;;
3755;SDS011;1893;52.526;13.360;2022-08-30T06:52:49;9.67;;;8.33;;
3755;SDS011;1893;52.526;13.360;2022-08-30T06:55:15;13.93;;;8.67;;
3755;SDS011;1893;52.526;13.360;2022-08-30T06:57:42;15.10;;;8.50;;
3755;SDS011;1893;52.526;13.360;2022-08-30T07:00:10;8.37;;;7.40;;
3755;SDS011;1893;52.526;13.360;2022-08-30T07:02:38;9.90;;;8.53;;
3755;SDS011;1893;52.526;13.360;2022-08-30T07:05:05;12.93;;;8.63;;
3755;SDS011;1893;52.526;13.360;2022-08-30T07:07:32;7.23;;;6.57;;
3755;SDS011;1893;52.526;13.360;2022-08-30T07:09:58;13.07;;;11.53;;
3755;SDS011;1893;52.526;13.360;2022-08-30T07:12:27;15.80;;;10.10;;
3755;SDS011;1893;52.526;13.360;2022-08-30T07:14:52;12.90;;;10.27;;
3755;SDS011;1893;52.526;13.360;2022-08-30T07:17:18;16.23;;;10.57;;
3755;SDS011;1893;52.526;13.360;2022-08-30T07:20:03;9.60;;;8.30;;
3755;SDS011;1893;52.526;13.360;2022-08-30T07:22:29;11.57;;;9.90;;
3755;SDS011;1893;52.526;13.360;2022-08-30T07:24:57;15.20;;;10.07;;
3755;SDS011;1893;52.526;13.360;2022-08-30T07:27:23;15.57;;;10.00;;
3755;SDS011;1893;52.526;13.360;2022-08-30T07:29:48;16.33;;;11.30;;
3755;SDS011;1893;52.526;13.360;2022-08-30T07:32:14;11.70;;;10.00;;
3755;SDS011;1893;52.526;13.360;2022-08-30T07:34:39;13.60;;;9.60;;
3755;SDS011;1893;52.526;13.360;2022-08-30T07:37:05;12.10;;;9.97;;
3755;SDS011;1893;52.526;13.360;2022-08-30T07:39:31;10.87;;;9.43;;
3755;SDS011;1893;52.526;13.360;2022-08-30T07:41:56;10.97;;;9.60;;
3755;SDS011;1893;52.526;13.360;2022-08-30T07:44:22;11.73;;;8.90;;
3755;SDS011;1893;52.526;13.360;2022-08-30T07:46:47;11.43;;;8.20;;
3755;SDS011;1893;52.526;13.360;2022-08-30T07:49:13;10.93;;;8.30;;
3755;SDS011;1893;52.526;13.360;2022-08-30T07:51:38;7.90;;;7.10;;
3755;SDS011;1893;52.526;13.360;2022-08-30T07:54:04;8.87;;;7.53;;
3755;SDS011;1893;52.526;13.360;2022-08-30T07:56:30;10.27;;;8.43;;
3755;SDS011;1893;52.526;13.360;2022-08-30T07:58:56;10.30;;;9.13;;
3755;SDS011;1893;52.526;13.360;2022-08-30T08:01:22;8.20;;;7.27;;
3755;SDS011;1893;52.526;13.360;2022-08-30T08:03:48;10.10;;;8.20;;
3755;SDS011;1893;52.526;13.360;2022-08-30T08:06:15;8.50;;;7.70;;
3755;SDS011;1893;52.526;13.360;2022-08-30T08:08:43;10.20;;;7.60;;
3755;SDS011;1893;52.526;13.360;2022-08-30T08:11:16;11.17;;;8.13;;
3755;SDS011;1893;52.526;13.360;2022-08-30T08:13:47;6.97;;;6.37;;
3755;SDS011;1893;52.526;13.360;2022-08-30T08:16:13;10.53;;;7.20;;
3755;SDS011;1893;52.526;13.360;2022-08-30T08:18:39;6.90;;;6.30;;
3755;SDS011;1893;52.526;13.360;2022-08-30T08:21:05;7.47;;;6.77;;
3755;SDS011;1893;52.526;13.360;2022-08-30T08:23:30;7.93;;;6.27;;
3755;SDS011;1893;52.526;13.360;2022-08-30T08:25:56;6.20;;;5.60;;
3755;SDS011;1893;52.526;13.360;2022-08-30T08:28:22;9.50;;;8.93;;
3755;SDS011;1893;52.526;13.360;2022-08-30T08:30:48;4.10;;;3.80;;
3755;SDS011;1893;52.526;13.360;2022-08-30T08:33:14;4.60;;;3.17;;
3755;SDS011;1893;52.526;13.360;2022-08-30T08:35:41;5.07;;;4.23;;
3755;SDS011;1893;52.526;13.360;2022-08-30T08:38:06;6.33;;;4.67;;
3755;SDS011;1893;52.526;13.360;2022-08-30T08:43:22;5.93;;;5.53;;
3755;SDS011;1893;52.526;13.360;2022-08-30T08:45:53;6.23;;;5.73;;
3755;SDS011;1893;52.526;13.360;2022-08-30T08:48:38;10.73;;;5.63;;
3755;SDS011;1893;52.526;13.360;2022-08-30T08:51:09;5.83;;;4.70;;
3755;SDS011;1893;52.526;13.360;2022-08-30T08:53:59;4.33;;;3.97;;
3755;SDS011;1893;52.526;13.360;2022-08-30T08:56:39;6.10;;;4.10;;
3755;SDS011;1893;52.526;13.360;2022-08-30T08:59:08;9.60;;;4.10;;
3755;SDS011;1893;52.526;13.360;2022-08-30T09:01:35;5.37;;;4.97;;
3755;SDS011;1893;52.526;13.360;2022-08-30T09:04:25;5.80;;;5.30;;
3755;SDS011;1893;52.526;13.360;2022-08-30T09:06:58;4.47;;;4.07;;
3755;SDS011;1893;52.526;13.360;2022-08-30T09:09:30;5.40;;;4.17;;
3755;SDS011;1893;52.526;13.360;2022-08-30T09:11:58;5.03;;;3.27;;
3755;SDS011;1893;52.526;13.360;2022-08-30T09:14:25;3.90;;;3.50;;
3755;SDS011;1893;52.526;13.360;2022-08-30T09:17:00;2.90;;;2.70;;
3755;SDS011;1893;52.526;13.360;2022-08-30T09:24:40;1.97;;;1.67;;
3755;SDS011;1893;52.526;13.360;2022-08-30T09:32:30;1.70;;;1.07;;
3755;SDS011;1893;52.526;13.360;2022-08-30T09:34:59;1.37;;;1.27;;
3755;SDS011;1893;52.526;13.360;2022-08-30T09:40:10;3.47;;;1.43;;
3755;SDS011;1893;52.526;13.360;2022-08-30T09:42:40;3.33;;;1.30;;
3755;SDS011;1893;52.526;13.360;2022-08-30T09:45:26;4.87;;;1.53;;
3755;SDS011;1893;52.526;13.360;2022-08-30T09:47:58;2.00;;;1.47;;
3755;SDS011;1893;52.526;13.360;2022-08-30T09:50:23;3.50;;;0.90;;
3755;SDS011;1893;52.526;13.360;2022-08-30T09:55:31;1.50;;;1.10;;
3755;SDS011;1893;52.526;13.360;2022-08-30T09:58:21;1.30;;;1.00;;
3755;SDS011;1893;52.526;13.360;2022-08-30T10:01:13;1.47;;;0.90;;
3755;SDS011;1893;52.526;13.360;2022-08-30T10:03:50;5.33;;;0.90;;
3755;SDS011;1893;52.526;13.360;2022-08-30T10:06:26;1.20;;;1.10;;
3755;SDS011;1893;52.526;13.360;2022-08-30T10:09:10;1.03;;;0.80;;
3755;SDS011;1893;52.526;13.360;2022-08-30T10:14:50;1.37;;;1.23;;
3755;SDS011;1893;52.526;13.360;2022-08-30T10:23:11;4.37;;;1.53;;
3755;SDS011;1893;52.526;13.360;2022-08-30T10:25:47;1.30;;;1.10;;
3755;SDS011;1893;52.526;13.360;2022-08-30T10:28:50;1.20;;;1.10;;
3755;SDS011;1893;52.526;13.360;2022-08-30T10:33:52;4.60;;;1.30;;
3755;SDS011;1893;52.526;13.360;2022-08-30T10:36:26;3.00;;;1.30;;
3755;SDS011;1893;52.526;13.360;2022-08-30T10:38:57;1.70;;;1.20;;
3755;SDS011;1893;52.526;13.360;2022-08-30T10:41:28;1.20;;;1.10;;
3755;SDS011;1893;52.526;13.360;2022-08-30T10:44:02;2.93;;;1.40;;
3755;SDS011;1893;52.526;13.360;2022-08-30T10:49:22;1.93;;;1.00;;
3755;SDS011;1893;52.526;13.360;2022-08-30T10:51:51;1.77;;;1.10;;
3755;SDS011;1893;52.526;13.360;2022-08-30T10:54:47;1.17;;;1.07;;
3755;SDS011;1893;52.526;13.360;2022-08-30T10:57:17;1.27;;;1.10;;
3755;SDS011;1893;52.526;13.360;2022-08-30T10:59:47;1.00;;;0.90;;
3755;SDS011;1893;52.526;13.360;2022-08-30T11:07:46;2.20;;;0.90;;
3755;SDS011;1893;52.526;13.360;2022-08-30T11:10:39;1.30;;;1.00;;
3755;SDS011;1893;52.526;13.360;2022-08-30T11:13:09;3.27;;;1.00;;
3755;SDS011;1893;52.526;13.360;2022-08-30T11:18:30;1.00;;;0.90;;
3755;SDS011;1893;52.526;13.360;2022-08-30T11:24:01;1.83;;;1.63;;
3755;SDS011;1893;52.526;13.360;2022-08-30T11:31:57;8.20;;;5.87;;
3755;SDS011;1893;52.526;13.360;2022-08-30T11:40:48;1.53;;;1.00;;
3755;SDS011;1893;52.526;13.360;2022-08-30T11:42:51;2.63;;;1.60;;
3755;SDS011;1893;52.526;13.360;2022-08-30T11:47:56;2.23;;;1.20;;
3755;SDS011;1893;52.526;13.360;2022-08-30T11:53:42;3.83;;;1.17;;
3755;SDS011;1893;52.526;13.360;2022-08-30T11:56:18;4.37;;;1.30;;
3755;SDS011;1893;52.526;13.360;2022-08-30T12:05:06;3.90;;;1.07;;
3755;SDS011;1893;52.526;13.360;2022-08-30T12:10:44;1.50;;;0.80;;
3755;SDS011;1893;52.526;13.360;2022-08-30T12:16:02;1.60;;;1.20;;
3755;SDS011;1893;52.526;13.360;2022-08-30T12:18:37;1.43;;;0.80;;
3755;SDS011;1893;52.526;13.360;2022-08-30T12:21:10;1.53;;;1.10;;
3755;SDS011;1893;52.526;13.360;2022-08-30T12:26:37;2.03;;;0.90;;
3755;SDS011;1893;52.526;13.360;2022-08-30T12:31:55;2.50;;;1.10;;
3755;SDS011;1893;52.526;13.360;2022-08-30T12:34:31;2.27;;;1.00;;
3755;SDS011;1893;52.526;13.360;2022-08-30T12:36:59;1.20;;;1.10;;
3755;SDS011;1893;52.526;13.360;2022-08-30T12:39:29;1.30;;;1.13;;
3755;SDS011;1893;52.526;13.360;2022-08-30T12:42:20;1.63;;;1.23;;
3755;SDS011;1893;52.526;13.360;2022-08-30T12:44:49;1.10;;;1.00;;
3755;SDS011;1893;52.526;13.360;2022-08-30T12:47:19;14.53;;;13.33;;
3755;SDS011;1893;52.526;13.360;2022-08-30T12:49:47;1.30;;;1.20;;
3755;SDS011;1893;52.526;13.360;2022-08-30T12:52:36;1.10;;;1.00;;
3755;SDS011;1893;52.526;13.360;2022-08-30T12:55:12;1.60;;;1.00;;
3755;SDS011;1893;52.526;13.360;2022-08-30T13:00:38;1.57;;;1.47;;
3755;SDS011;1893;52.526;13.360;2022-08-30T13:06:07;2.03;;;1.40;;
3755;SDS011;1893;52.526;13.360;2022-08-30T13:08:35;1.40;;;1.30;;
3755;SDS011;1893;52.526;13.360;2022-08-30T13:13:47;2.07;;;1.80;;
3755;SDS011;1893;52.526;13.360;2022-08-30T13:18:46;4.50;;;2.37;;
3755;SDS011;1893;52.526;13.360;2022-08-30T13:21:21;2.37;;;2.17;;
3755;SDS011;1893;52.526;13.360;2022-08-30T13:23:49;3.47;;;2.13;;
3755;SDS011;1893;52.526;13.360;2022-08-30T13:26:15;2.00;;;1.80;;
3755;SDS011;1893;52.526;13.360;2022-08-30T13:28:46;2.80;;;1.93;;
3755;SDS011;1893;52.526;13.360;2022-08-30T13:31:14;3.53;;;2.53;;
3755;SDS011;1893;52.526;13.360;2022-08-30T13:33:40;3.30;;;2.63;;
3755;SDS011;1893;52.526;13.360;2022-08-30T13:36:06;2.00;;;1.90;;
3755;SDS011;1893;52.526;13.360;2022-08-30T13:38:31;6.20;;;2.37;;
3755;SDS011;1893;52.526;13.360;2022-08-30T13:40:57;3.30;;;1.97;;
3755;SDS011;1893;52.526;13.360;2022-08-30T13:43:22;2.00;;;1.70;;
3755;SDS011;1893;52.526;13.360;2022-08-30T13:45:48;2.80;;;1.60;;
3755;SDS011;1893;52.526;13.360;2022-08-30T13:48:14;1.77;;;1.60;;
3755;SDS011;1893;52.526;13.360;2022-08-30T13:50:40;2.37;;;2.07;;
3755;SDS011;1893;52.526;13.360;2022-08-30T13:53:07;8.20;;;2.10;;
3755;SDS011;1893;52.526;13.360;2022-08-30T13:55:33;2.97;;;1.93;;
3755;SDS011;1893;52.526;13.360;2022-08-30T13:57:59;2.10;;;1.90;;
3755;SDS011;1893;52.526;13.360;2022-08-30T14:00:25;2.57;;;2.37;;
3755;SDS011;1893;52.526;13.360;2022-08-30T14:02:51;2.40;;;2.20;;
3755;SDS011;1893;52.526;13.360;2022-08-30T14:05:20;3.37;;;2.27;;
3755;SDS011;1893;52.526;13.360;2022-08-30T14:07:54;3.50;;;3.00;;
3755;SDS011;1893;52.526;13.360;2022-08-30T14:10:20;2.80;;;2.57;;
3755;SDS011;1893;52.526;13.360;2022-08-30T14:12:49;2.60;;;1.70;;
3755;SDS011;1893;52.526;13.360;2022-08-30T14:15:15;3.20;;;2.20;;
3755;SDS011;1893;52.526;13.360;2022-08-30T14:17:40;2.57;;;2.37;;
3755;SDS011;1893;52.526;13.360;2022-08-30T14:20:06;2.27;;;2.10;;
3755;SDS011;1893;52.526;13.360;2022-08-30T14:22:32;1.63;;;1.53;;
3755;SDS011;1893;52.526;13.360;2022-08-30T14:24:57;2.33;;;2.13;;
3755;SDS011;1893;52.526;13.360;2022-08-30T14:27:25;1.60;;;1.50;;
3755;SDS011;1893;52.526;13.360;2022-08-30T14:29:51;2.20;;;1.50;;
3755;SDS011;1893;52.526;13.360;2022-08-30T14:32:17;2.00;;;1.60;;
3755;SDS011;1893;52.526;13.360;2022-08-30T14:34:42;2.47;;;1.83;;
3755;SDS011;1893;52.526;13.360;2022-08-30T14:37:08;2.07;;;1.87;;
3755;SDS011;1893;52.526;13.360;2022-08-30T14:39:34;2.67;;;2.33;;
3755;SDS011;1893;52.526;13.360;2022-08-30T14:41:59;3.10;;;2.50;;
3755;SDS011;1893;52.526;13.360;2022-08-30T14:44:25;1.97;;;1.80;;
3755;SDS011;1893;52.526;13.360;2022-08-30T14:46:51;2.70;;;1.80;;
3755;SDS011;1893;52.526;13.360;2022-08-30T14:49:19;2.20;;;1.80;;
3755;SDS011;1893;52.526;13.360;2022-08-30T14:51:44;2.27;;;2.07;;
3755;SDS011;1893;52.526;13.360;2022-08-30T14:54:12;2.77;;;1.77;;
3755;SDS011;1893;52.526;13.360;2022-08-30T14:56:39;6.13;;;2.60;;
3755;SDS011;1893;52.526;13.360;2022-08-30T14:59:05;3.67;;;2.70;;
3755;SDS011;1893;52.526;13.360;2022-08-30T15:01:30;2.43;;;2.13;;
3755;SDS011;1893;52.526;13.360;2022-08-30T15:03:56;4.70;;;2.80;;
3755;SDS011;1893;52.526;13.360;2022-08-30T15:06:23;3.70;;;3.40;;
3755;SDS011;1893;52.526;13.360;2022-08-30T15:08:48;2.67;;;2.47;;
3755;SDS011;1893;52.526;13.360;2022-08-30T15:11:15;2.00;;;1.80;;
3755;SDS011;1893;52.526;13.360;2022-08-30T15:13:43;3.20;;;2.90;;
3755;SDS011;1893;52.526;13.360;2022-08-30T15:18:39;2.87;;;2.67;;
3755;SDS011;1893;52.526;13.360;2022-08-30T15:21:05;3.10;;;2.87;;
3755;SDS011;1893;52.526;13.360;2022-08-30T15:23:30;5.10;;;2.20;;
3755;SDS011;1893;52.526;13.360;2022-08-30T15:25:56;2.80;;;2.60;;
3755;SDS011;1893;52.526;13.360;2022-08-30T15:28:22;2.90;;;2.50;;
3755;SDS011;1893;52.526;13.360;2022-08-30T15:30:47;3.17;;;2.97;;
3755;SDS011;1893;52.526;13.360;2022-08-30T15:33:14;2.47;;;2.27;;
3755;SDS011;1893;52.526;13.360;2022-08-30T15:35:41;5.20;;;3.53;;
3755;SDS011;1893;52.526;13.360;2022-08-30T15:38:07;6.23;;;3.30;;
3755;SDS011;1893;52.526;13.360;2022-08-30T15:40:34;3.03;;;2.57;;
3755;SDS011;1893;52.526;13.360;2022-08-30T15:43:03;5.80;;;2.70;;
3755;SDS011;1893;52.526;13.360;2022-08-30T15:45:29;2.70;;;2.50;;
3755;SDS011;1893;52.526;13.360;2022-08-30T15:47:57;7.20;;;3.50;;
3755;SDS011;1893;52.526;13.360;2022-08-30T15:50:24;2.73;;;2.53;;
3755;SDS011;1893;52.526;13.360;2022-08-30T15:52:50;3.17;;;2.87;;
3755;SDS011;1893;52.526;13.360;2022-08-30T15:55:15;3.10;;;2.80;;
3755;SDS011;1893;52.526;13.360;2022-08-30T15:57:41;3.30;;;2.43;;
3755;SDS011;1893;52.526;13.360;2022-08-30T16:00:06;2.37;;;2.00;;
3755;SDS011;1893;52.526;13.360;2022-08-30T16:02:34;2.10;;;2.00;;
3755;SDS011;1893;52.526;13.360;2022-08-30T16:04:59;2.80;;;2.13;;
3755;SDS011;1893;52.526;13.360;2022-08-30T16:07:25;2.33;;;2.13;;
3755;SDS011;1893;52.526;13.360;2022-08-30T16:09:51;2.00;;;1.90;;
3755;SDS011;1893;52.526;13.360;2022-08-30T16:12:16;1.70;;;1.60;;
3755;SDS011;1893;52.526;13.360;2022-08-30T16:14:42;3.20;;;2.20;;
3755;SDS011;1893;52.526;13.360;2022-08-30T16:17:07;2.70;;;1.67;;
3755;SDS011;1893;52.526;13.360;2022-08-30T16:19:33;4.03;;;2.03;;
3755;SDS011;1893;52.526;13.360;2022-08-30T16:21:58;2.60;;;2.40;;
3755;SDS011;1893;52.526;13.360;2022-08-30T16:24:25;3.87;;;3.53;;
3755;SDS011;1893;52.526;13.360;2022-08-30T16:26:51;3.23;;;2.93;;
3755;SDS011;1893;52.526;13.360;2022-08-30T16:29:17;1.97;;;1.87;;
3755;SDS011;1893;52.526;13.360;2022-08-30T16:31:44;2.47;;;1.83;;
3755;SDS011;1893;52.526;13.360;2022-08-30T16:34:11;4.40;;;2.83;;
3755;SDS011;1893;52.526;13.360;2022-08-30T16:36:38;2.40;;;2.30;;
3755;SDS011;1893;52.526;13.360;2022-08-30T16:39:05;2.30;;;1.73;;
3755;SDS011;1893;52.526;13.360;2022-08-30T16:41:32;3.30;;;3.10;;